Time;durP1;ratioP1;P1;durP2;ratioP2;P2;SDS_P1;SDS_P2;PMS_P1;PMS_P2;Temp;Humidity;BMP_temperature;BMP_pressure;BME280_temperature;BME280_humidity;BME280_pressure;Samples;Min_cycle;Max_cycle;Signal;HPM_P1;HPM_P2
2021/08/31 00:02:05;;;;;;;;;13.75;12.25;;;;;20.43;60.00;101720.84;5078506;27;45947;-51
2021/08/31 00:04:30;;;;;;;;;15.00;11.00;;;;;20.45;59.88;101720.75;5072627;27;48404;-53
2021/08/31 00:06:56;;;;;;;;;12.00;12.00;;;;;20.46;60.24;101717.16;5078190;28;45408;-52
2021/08/31 00:09:22;;;;;;;;;8.75;8.75;;;;;20.45;60.10;101723.44;5085763;27;45544;-53
2021/08/31 00:11:47;;;;;;;;;15.25;12.00;;;;;20.45;60.36;101720.75;5059972;28;45552;-50
2021/08/31 00:14:13;;;;;;;;;8.67;7.00;;;;;20.44;59.69;101719.88;5078109;28;47454;-51
2021/08/31 00:16:40;;;;;;;;;9.50;8.75;;;;;20.43;60.11;101719.97;5078545;28;45354;-51
2021/08/31 00:19:06;;;;;;;;;13.00;12.25;;;;;20.43;60.03;101718.13;5078205;28;45766;-51
2021/08/31 00:21:31;;;;;;;;;11.25;10.25;;;;;20.43;59.85;101725.34;5083047;27;45482;-54
2021/08/31 00:23:57;;;;;;;;;9.50;9.50;;;;;20.44;60.10;101713.63;5078777;27;48086;-51
2021/08/31 00:26:22;;;;;;;;;11.00;10.00;;;;;20.42;60.08;101716.38;5060144;28;46544;-48
2021/08/31 00:28:48;;;;;;;;;10.75;9.75;;;;;20.42;59.91;101715.50;5077659;28;45395;-51
2021/08/31 00:31:13;;;;;;;;;10.25;9.50;;;;;20.41;59.54;101722.69;5078544;28;45632;-53
2021/08/31 00:33:39;;;;;;;;;10.25;10.25;;;;;20.42;60.07;101718.22;5082412;27;48100;-51
2021/08/31 00:36:04;;;;;;;;;11.00;11.00;;;;;20.40;59.91;101712.00;5060161;28;45434;-52
2021/08/31 00:38:31;;;;;;;;;11.00;11.00;;;;;20.39;60.30;101715.63;5077558;27;45652;-52
2021/08/31 00:40:57;;;;;;;;;11.67;10.00;;;;;20.38;59.89;101724.66;5078166;28;45342;-50
2021/08/31 00:43:23;;;;;;;;;9.67;9.00;;;;;20.38;59.75;101717.44;5059525;28;47303;-52
2021/08/31 00:45:49;;;;;;;;;12.25;8.75;;;;;20.38;60.00;101725.53;5059542;28;45733;-50
2021/08/31 00:48:20;;;;;;;;;10.33;9.67;;;;;20.38;59.72;101720.16;5077868;27;45302;-50
2021/08/31 00:50:47;;;;;;;;;8.67;8.00;;;;;20.39;59.57;101724.59;5078107;28;45460;-51
2021/08/31 00:53:13;;;;;;;;;10.00;10.00;;;;;20.39;59.63;101723.72;5077676;28;48037;-51
2021/08/31 00:55:38;;;;;;;;;10.00;9.67;;;;;20.37;59.86;101718.41;5077942;28;45805;-52
2021/08/31 00:58:04;;;;;;;;;8.33;8.33;;;;;20.36;59.55;101711.25;5077849;27;46390;-52
2021/08/31 01:00:29;;;;;;;;;11.50;9.75;;;;;20.34;60.03;101705.06;5078222;28;45530;-52
2021/08/31 01:02:55;;;;;;;;;11.33;10.67;;;;;20.32;59.55;101708.75;5080433;27;47088;-48
2021/08/31 01:05:21;;;;;;;;;6.33;6.33;;;;;20.28;59.56;101711.59;5078251;27;45874;-50
2021/08/31 01:07:47;;;;;;;;;11.00;8.00;;;;;20.28;60.19;101721.50;5077501;27;45298;-53
2021/08/31 01:10:14;;;;;;;;;12.33;10.67;;;;;20.28;60.06;101718.81;5078264;27;45394;-50
2021/08/31 01:12:41;;;;;;;;;6.67;5.00;;;;;20.27;60.11;101717.06;5077338;27;48391;-48
2021/08/31 01:15:07;;;;;;;;;10.33;8.67;;;;;20.26;59.53;101718.91;5077406;28;45350;-52
2021/08/31 01:17:34;;;;;;;;;7.00;7.00;;;;;20.28;59.96;101721.50;5059355;28;45579;-53
2021/08/31 01:20:01;;;;;;;;;7.67;6.00;;;;;20.29;60.12;101720.56;5077997;27;45536;-53
2021/08/31 01:22:27;;;;;;;;;7.33;7.33;;;;;20.31;59.99;101721.38;5059525;27;47089;-51
2021/08/31 01:24:57;;;;;;;;;9.00;8.33;;;;;20.29;59.93;101716.06;5080595;27;45866;-52
2021/08/31 01:27:24;;;;;;;;;6.00;6.00;;;;;20.25;59.63;101716.28;5063019;28;45318;-49
2021/08/31 01:29:50;;;;;;;;;8.00;8.00;;;;;20.21;59.55;101714.69;5081212;27;45441;-49
2021/08/31 01:32:15;;;;;;;;;6.00;6.00;;;;;20.17;59.90;101718.44;5080856;27;45336;-50
2021/08/31 01:34:41;;;;;;;;;7.00;6.67;;;;;20.13;59.70;101717.72;5080551;27;45756;-52
2021/08/31 01:37:10;;;;;;;;;6.00;6.00;;;;;20.11;60.20;101719.59;5062927;28;45358;-48
2021/08/31 01:39:36;;;;;;;;;8.33;7.00;;;;;20.05;60.00;101714.47;5062572;27;45466;-49
2021/08/31 01:42:02;;;;;;;;;5.67;5.67;;;;;20.02;60.38;101720.00;5080444;27;47780;-51
2021/08/31 01:44:27;;;;;;;;;7.67;6.33;;;;;19.97;60.10;101720.22;5062470;28;45378;-51
2021/08/31 01:46:53;;;;;;;;;11.33;10.00;;;;;19.96;60.55;101725.69;5083892;27;45435;-52
2021/08/31 01:49:19;;;;;;;;;12.33;9.00;;;;;19.97;60.37;101722.94;5084634;27;45341;-50
2021/08/31 01:51:44;;;;;;;;;10.00;10.00;;;;;19.98;59.99;101724.69;5062219;28;47471;-48
2021/08/31 01:54:10;;;;;;;;;8.00;8.00;;;;;19.96;60.31;101726.56;5080661;27;46036;-47
2021/08/31 01:56:36;;;;;;;;;9.00;9.00;;;;;19.96;60.23;101728.38;5080702;27;45267;-51
2021/08/31 01:59:01;;;;;;;;;6.00;6.00;;;;;19.97;60.33;101722.94;5045555;27;45393;-52
2021/08/31 02:01:27;;;;;;;;;8.67;8.67;;;;;19.97;60.31;101716.66;5083444;27;47403;-50
2021/08/31 02:03:52;;;;;;;;;8.33;7.33;;;;;19.98;60.46;101723.81;5080516;27;45798;-51
2021/08/31 02:06:18;;;;;;;;;9.67;8.00;;;;;19.97;60.37;101725.63;5062141;27;45447;-50
2021/08/31 02:08:43;;;;;;;;;7.33;7.33;;;;;19.96;60.15;101721.19;5080236;27;45484;-51
2021/08/31 02:11:09;;;;;;;;;10.67;7.33;;;;;19.96;60.42;101721.19;5080271;27;47513;-47
2021/08/31 02:13:34;;;;;;;;;9.00;8.67;;;;;19.96;60.46;101731.94;5080579;27;45373;-54
2021/08/31 02:16:00;;;;;;;;;7.67;7.33;;;;;19.96;60.24;101725.69;5080468;27;45453;-52
2021/08/31 02:18:25;;;;;;;;;7.00;7.00;;;;;19.98;60.08;101726.50;5080644;27;45484;-51
2021/08/31 02:20:51;;;;;;;;;8.33;8.00;;;;;19.98;60.04;101724.69;5061362;28;47624;-47
2021/08/31 02:23:16;;;;;;;;;9.00;7.00;;;;;19.98;60.56;101726.50;5080150;27;45497;-46
2021/08/31 02:25:42;;;;;;;;;8.00;7.00;;;;;19.96;60.16;101725.69;5080121;27;45302;-51
2021/08/31 02:28:07;;;;;;;;;9.00;9.00;;;;;19.95;60.44;101718.56;5080143;28;45684;-46
2021/08/31 02:30:33;;;;;;;;;7.00;7.00;;;;;19.93;60.29;101726.69;5079874;27;47239;-47
2021/08/31 02:33:02;;;;;;;;;9.00;8.00;;;;;19.94;60.28;101728.44;5075021;27;45563;-51
2021/08/31 02:35:28;;;;;;;;;7.00;7.00;;;;;19.93;60.35;101721.28;5077889;28;45587;-50
2021/08/31 02:37:53;;;;;;;;;7.33;7.33;;;;;19.94;60.47;101717.66;5080092;27;45390;-49
2021/08/31 02:40:19;;;;;;;;;8.33;8.33;;;;;19.92;60.18;101727.63;5077078;27;47359;-52
2021/08/31 02:42:44;;;;;;;;;8.33;8.33;;;;;19.90;60.16;101718.75;5077128;27;45636;-51
2021/08/31 02:45:10;;;;;;;;;6.33;6.00;;;;;19.88;60.14;101730.53;5052835;28;45718;-50
2021/08/31 02:47:36;;;;;;;;;9.00;8.67;;;;;19.85;60.40;101725.28;5080516;27;45568;-52
2021/08/31 02:50:03;;;;;;;;;8.33;8.33;;;;;19.84;60.29;101721.72;5079193;28;47115;-50
2021/08/31 02:52:28;;;;;;;;;8.00;7.00;;;;;19.85;60.16;101722.59;5079673;28;45304;-49
2021/08/31 02:54:53;;;;;;;;;9.00;7.00;;;;;19.84;60.57;101724.41;5061092;28;45623;-52
2021/08/31 02:57:19;;;;;;;;;7.00;7.00;;;;;19.85;60.53;101718.09;5081405;27;45361;-53
2021/08/31 02:59:44;;;;;;;;;6.33;6.00;;;;;19.87;60.48;101723.41;5061414;28;48155;-50
2021/08/31 03:02:10;;;;;;;;;9.67;8.33;;;;;19.86;60.26;101725.22;5079072;28;45272;-52
2021/08/31 03:04:40;;;;;;;;;9.33;8.00;;;;;19.87;60.47;101710.81;5087320;27;45467;-51
2021/08/31 03:07:08;;;;;;;;;7.00;7.00;;;;;19.86;60.70;101714.44;5079800;28;45378;-52
2021/08/31 03:09:33;;;;;;;;;7.75;7.25;;;;;19.86;60.49;101710.88;5085720;27;46452;-52
2021/08/31 03:11:59;;;;;;;;;7.33;7.00;;;;;19.85;60.71;101709.13;5079390;27;45361;-52
2021/08/31 03:14:25;;;;;;;;;7.50;7.00;;;;;19.84;60.23;101713.63;5079532;28;45275;-52
2021/08/31 03:16:51;;;;;;;;;8.00;8.00;;;;;19.83;60.29;101714.59;5079379;28;45603;-52
2021/08/31 03:19:18;;;;;;;;;8.50;8.50;;;;;19.84;60.91;101715.47;5079070;28;48575;-52
2021/08/31 03:21:43;;;;;;;;;8.00;8.00;;;;;19.82;60.32;101717.31;5044383;28;45407;-52
2021/08/31 03:24:09;;;;;;;;;13.25;13.25;;;;;19.83;60.43;101722.66;5079346;27;45819;-50
2021/08/31 03:26:34;;;;;;;;;9.75;8.00;;;;;19.84;60.61;101718.16;5079983;27;45379;-52
2021/08/31 03:29:00;;;;;;;;;10.50;9.25;;;;;19.84;60.91;101716.34;5078936;27;46648;-53
2021/08/31 03:31:25;;;;;;;;;9.25;9.25;;;;;19.87;60.43;101723.41;5068816;27;45412;-53
2021/08/31 03:33:50;;;;;;;;;12.50;9.00;;;;;19.86;60.66;101722.53;5065947;27;45422;-51
2021/08/31 03:36:16;;;;;;;;;7.75;7.75;;;;;19.88;60.22;101726.03;5079628;27;45966;-47
2021/08/31 03:38:41;;;;;;;;;8.00;7.25;;;;;19.91;60.68;101727.69;5078699;27;47267;-50
2021/08/31 03:41:07;;;;;;;;;8.50;8.50;;;;;19.91;60.85;101728.56;5060931;28;45632;-54
2021/08/31 03:43:32;;;;;;;;;12.00;11.00;;;;;19.91;60.58;101733.97;5061105;27;45387;-51
2021/08/31 03:45:58;;;;;;;;;11.00;9.75;;;;;19.91;60.17;101731.25;5079750;27;45400;-52
2021/08/31 03:48:23;;;;;;;;;9.50;9.50;;;;;19.90;60.53;101734.91;5037248;28;47147;-51
2021/08/31 03:50:49;;;;;;;;;8.25;8.25;;;;;19.89;60.23;101732.28;5060434;28;45374;-51
2021/08/31 03:53:14;;;;;;;;;7.50;7.50;;;;;19.89;60.58;101726.91;5079226;28;45428;-50
2021/08/31 03:55:40;;;;;;;;;11.25;9.75;;;;;19.89;60.61;101729.59;5079347;28;45467;-50
2021/08/31 03:58:07;;;;;;;;;8.00;8.00;;;;;19.92;60.61;101732.13;5079374;27;46275;-48
2021/08/31 04:00:34;;;;;;;;;10.75;9.75;;;;;19.95;60.43;101737.41;5078796;28;45353;-52
2021/08/31 04:02:59;;;;;;;;;8.00;6.25;;;;;19.96;60.40;101734.66;5083894;27;45445;-52
2021/08/31 04:05:25;;;;;;;;;11.00;10.75;;;;;19.94;60.42;101744.59;5081268;27;45302;-50
2021/08/31 04:07:50;;;;;;;;;11.00;10.25;;;;;19.95;60.32;101746.38;5069383;28;47274;-55
2021/08/31 04:10:16;;;;;;;;;11.75;11.00;;;;;19.96;60.40;101741.84;5078496;28;45355;-54
2021/08/31 04:12:41;;;;;;;;;9.00;9.00;;;;;19.98;60.30;101739.97;5078288;28;45687;-55
2021/08/31 04:15:07;;;;;;;;;10.33;9.67;;;;;20.00;60.98;101743.47;5087228;27;45470;-55
2021/08/31 04:17:32;;;;;;;;;11.75;11.75;;;;;20.04;60.65;101733.41;5078572;28;46909;-56
2021/08/31 04:19:58;;;;;;;;;12.00;12.00;;;;;20.03;60.27;101740.63;5060722;28;45412;-55
2021/08/31 04:22:23;;;;;;;;;11.25;11.00;;;;;20.05;60.49;101743.25;5079446;27;45642;-54
2021/08/31 04:24:49;;;;;;;;;12.75;12.75;;;;;20.06;60.24;101745.00;5060079;28;45276;-54
2021/08/31 04:27:15;;;;;;;;;13.25;11.50;;;;;20.07;59.97;101753.00;5078774;28;48222;-53
2021/08/31 04:29:41;;;;;;;;;14.50;13.25;;;;;20.08;60.48;101751.22;5078376;28;45404;-55
2021/08/31 04:32:06;;;;;;;;;11.50;10.75;;;;;20.11;60.28;101751.94;5078649;27;45470;-54
2021/08/31 04:34:32;;;;;;;;;12.75;11.50;;;;;20.13;59.96;101752.75;5078247;28;45389;-54
2021/08/31 04:36:57;;;;;;;;;16.00;13.00;;;;;20.16;60.32;101754.41;5078228;28;47711;-52
2021/08/31 04:39:23;;;;;;;;;11.67;11.67;;;;;20.18;59.89;101753.41;5082026;27;45631;-55
2021/08/31 04:41:50;;;;;;;;;16.00;14.00;;;;;20.22;60.02;101756.84;5069740;28;45442;-55
2021/08/31 04:44:15;;;;;;;;;11.75;11.75;;;;;20.23;59.76;101755.91;5078256;28;45681;-53
2021/08/31 04:46:41;;;;;;;;;14.75;12.00;;;;;20.26;60.52;101750.38;5059765;28;45451;-59
2021/08/31 04:49:06;;;;;;;;;13.25;12.75;;;;;20.29;59.95;101758.31;5046511;28;45303;-54
2021/08/31 04:51:33;;;;;;;;;15.50;14.25;;;;;20.29;59.78;101750.22;5060481;28;45321;-51
2021/08/31 04:53:59;;;;;;;;;14.25;12.00;;;;;20.26;59.65;101756.63;5078257;28;45255;-54
2021/08/31 04:56:24;;;;;;;;;16.75;13.25;;;;;20.24;59.86;101758.53;5078365;28;46911;-55
2021/08/31 04:58:50;;;;;;;;;15.75;14.25;;;;;20.23;60.21;101762.16;5081182;28;45588;-56
2021/08/31 05:01:15;;;;;;;;;12.50;12.50;;;;;20.22;59.79;101759.56;5071982;27;45470;-57
2021/08/31 05:03:42;;;;;;;;;13.50;12.75;;;;;20.20;59.68;101761.41;5093264;27;45827;-57
2021/08/31 05:06:09;;;;;;;;;16.50;13.25;;;;;20.20;60.23;101754.22;5081028;28;47289;-56
2021/08/31 05:08:35;;;;;;;;;17.25;16.00;;;;;20.23;60.13;101764.88;5085567;27;45861;-58
2021/08/31 05:11:01;;;;;;;;;18.50;16.50;;;;;20.26;59.89;101766.53;5081178;28;45374;-58
2021/08/31 05:13:26;;;;;;;;;14.00;13.25;;;;;20.27;60.12;101768.28;5072028;27;45475;-57
2021/08/31 05:15:51;;;;;;;;;19.00;13.67;;;;;20.28;59.86;101764.66;5062933;28;47765;-55
2021/08/31 05:18:17;;;;;;;;;15.00;14.25;;;;;20.29;59.78;101767.28;5064145;27;45276;-55
2021/08/31 05:20:42;;;;;;;;;15.50;15.50;;;;;20.31;60.12;101760.94;5082893;27;45265;-54
2021/08/31 05:23:08;;;;;;;;;15.50;14.00;;;;;20.32;60.32;101771.63;5081386;28;45412;-56
2021/08/31 05:25:34;;;;;;;;;17.50;17.50;;;;;20.33;59.79;101767.13;5081407;28;47359;-57
2021/08/31 05:28:00;;;;;;;;;13.50;13.50;;;;;20.35;60.30;101770.66;5080755;28;45314;-58
2021/08/31 05:30:25;;;;;;;;;17.25;15.00;;;;;20.36;60.20;101773.28;5075615;28;45326;-58
2021/08/31 05:32:51;;;;;;;;;18.25;18.25;;;;;20.39;59.75;101772.25;5090126;27;45529;-55
2021/08/31 05:35:16;;;;;;;;;16.25;14.25;;;;;20.37;60.09;101775.03;5080735;28;45495;-56
2021/08/31 05:37:42;;;;;;;;;17.00;16.50;;;;;20.35;60.14;101776.03;5080897;28;45489;-55
2021/08/31 05:40:08;;;;;;;;;16.50;16.00;;;;;20.37;60.35;101771.44;5080866;28;45434;-57
2021/08/31 05:42:34;;;;;;;;;16.50;15.25;;;;;20.37;60.67;101775.03;5062823;28;45849;-56
2021/08/31 05:44:59;;;;;;;;;19.50;16.75;;;;;20.39;60.55;101777.66;5061413;28;48227;-56
2021/08/31 05:47:25;;;;;;;;;22.50;19.75;;;;;20.40;60.46;101776.69;5082591;27;45477;-56
2021/08/31 05:49:50;;;;;;;;;20.25;18.00;;;;;20.41;60.48;101773.91;5062062;28;45413;-56
2021/08/31 05:52:16;;;;;;;;;17.00;16.75;;;;;20.44;60.78;101778.31;5080989;28;45467;-57
2021/08/31 05:54:41;;;;;;;;;23.25;18.50;;;;;20.46;60.61;101782.72;5080329;28;46981;-57
2021/08/31 05:57:10;;;;;;;;;15.25;14.00;;;;;20.48;60.08;101782.66;5080660;28;45680;-57
2021/08/31 05:59:40;;;;;;;;;17.00;15.50;;;;;20.49;60.48;101781.72;5062453;28;45330;-56
2021/08/31 06:02:09;;;;;;;;;17.50;15.00;;;;;20.51;60.57;101793.28;5080768;28;45937;-56
2021/08/31 06:04:39;;;;;;;;;17.75;17.50;;;;;20.52;59.90;101790.53;5085239;27;46327;-56
2021/08/31 06:07:09;;;;;;;;;20.75;15.50;;;;;20.52;59.97;101795.03;5080153;28;45825;-56
2021/08/31 06:09:39;;;;;;;;;21.50;19.25;;;;;20.51;59.94;101793.28;5076866;27;45327;-56
2021/08/31 06:12:07;;;;;;;;;21.25;21.25;;;;;20.52;59.80;101792.34;5080146;28;45722;-56
2021/08/31 06:14:33;;;;;;;;;20.25;20.25;;;;;20.52;60.43;101804.00;5080099;28;47172;-57
2021/08/31 06:16:59;;;;;;;;;21.75;18.25;;;;;20.55;59.99;101808.38;5078980;27;45503;-55
2021/08/31 06:19:25;;;;;;;;;22.25;20.25;;;;;20.56;59.99;101804.72;5081652;27;45445;-57
2021/08/31 06:21:50;;;;;;;;;20.50;19.50;;;;;20.56;59.95;101807.44;5090406;27;45440;-57
2021/08/31 06:24:16;;;;;;;;;19.75;19.25;;;;;20.56;59.83;101802.91;5079740;28;45334;-57
2021/08/31 06:26:41;;;;;;;;;20.00;18.75;;;;;20.57;59.90;101812.75;5079950;27;46064;-56
2021/08/31 06:29:07;;;;;;;;;19.25;17.75;;;;;20.60;60.42;101803.66;5061599;28;45495;-56
2021/08/31 06:31:32;;;;;;;;;22.75;21.50;;;;;20.63;60.06;101810.72;5060155;27;45663;-56
2021/08/31 06:33:58;;;;;;;;;22.75;22.75;;;;;20.66;60.22;101810.59;5076929;28;47252;-55
2021/08/31 06:36:23;;;;;;;;;21.00;18.75;;;;;20.65;59.72;101812.41;5041417;28;45489;-56
2021/08/31 06:38:49;;;;;;;;;19.00;19.00;;;;;20.64;60.15;101813.34;5076897;28;45866;-56
2021/08/31 06:41:14;;;;;;;;;20.75;19.50;;;;;20.65;60.31;101807.00;5079935;27;45480;-57
2021/08/31 06:43:41;;;;;;;;;23.00;21.50;;;;;20.67;59.99;101812.34;5079915;28;46974;-57
2021/08/31 06:46:07;;;;;;;;;20.50;20.50;;;;;20.67;59.85;101815.03;5079565;28;45622;-56
2021/08/31 06:48:32;;;;;;;;;22.50;20.75;;;;;20.70;59.65;101814.88;5078617;28;45492;-57
2021/08/31 06:50:58;;;;;;;;;24.25;22.25;;;;;20.71;60.33;101814.84;5064929;28;45436;-57
2021/08/31 06:53:24;;;;;;;;;26.25;24.75;;;;;20.75;60.04;101816.44;5061804;28;48026;-56
2021/08/31 06:55:49;;;;;;;;;23.00;21.50;;;;;20.77;59.81;101810.97;5079916;28;45667;-57
2021/08/31 06:58:14;;;;;;;;;23.50;18.75;;;;;20.79;59.65;101807.25;5061675;28;45326;-57
2021/08/31 07:00:40;;;;;;;;;25.50;22.00;;;;;20.82;59.44;101814.31;5061620;28;45608;-57
2021/08/31 07:03:05;;;;;;;;;22.25;22.25;;;;;20.87;59.89;101817.69;5063797;28;47373;-58
2021/08/31 07:05:31;;;;;;;;;22.75;22.00;;;;;20.90;59.76;101822.94;5079596;27;45585;-57
2021/08/31 07:07:56;;;;;;;;;21.50;21.00;;;;;20.93;59.39;101820.06;5079474;27;45272;-58
2021/08/31 07:10:23;;;;;;;;;24.00;24.00;;;;;20.97;59.62;101827.09;5079915;27;45413;-58
2021/08/31 07:12:49;;;;;;;;;21.00;18.25;;;;;20.98;59.47;101828.84;5085421;27;48320;-57
2021/08/31 07:15:16;;;;;;;;;22.50;21.75;;;;;20.98;59.39;101831.56;5080516;27;46126;-55
2021/08/31 07:17:41;;;;;;;;;23.25;21.00;;;;;20.99;59.27;101825.19;5079469;28;45540;-57
2021/08/31 07:20:07;;;;;;;;;22.50;19.00;;;;;20.99;59.56;101827.91;5081039;27;45462;-58
2021/08/31 07:22:33;;;;;;;;;22.50;20.75;;;;;21.00;59.48;101824.25;5079293;28;47225;-59
2021/08/31 07:24:58;;;;;;;;;26.25;24.50;;;;;21.00;59.37;101823.38;5064944;28;45560;-58
2021/08/31 07:27:24;;;;;;;;;25.00;23.00;;;;;21.00;59.02;101828.78;5084254;27;45302;-59
2021/08/31 07:29:49;;;;;;;;;26.75;25.25;;;;;20.99;59.40;101827.03;5064514;27;45476;-57
2021/08/31 07:32:16;;;;;;;;;23.25;21.75;;;;;21.01;59.09;101826.00;5065715;27;48228;-56
2021/08/31 07:34:42;;;;;;;;;20.75;20.75;;;;;21.04;59.06;101831.25;5088338;27;45335;-57
2021/08/31 07:37:08;;;;;;;;;25.00;23.75;;;;;21.09;59.03;101831.91;5079231;28;45773;-57
2021/08/31 07:39:34;;;;;;;;;29.25;26.25;;;;;21.10;59.18;101822.88;5060786;27;45475;-57
2021/08/31 07:42:00;;;;;;;;;21.25;21.00;;;;;21.13;59.30;101824.53;5079006;27;46941;-57
2021/08/31 07:44:25;;;;;;;;;28.00;24.50;;;;;21.17;58.69;101827.00;5078729;27;45366;-57
2021/08/31 07:46:51;;;;;;;;;26.00;24.75;;;;;21.18;58.91;101827.88;5060523;28;45500;-56
2021/08/31 07:49:18;;;;;;;;;24.75;22.50;;;;;21.19;58.60;101829.63;5078949;27;45277;-56
2021/08/31 07:51:45;;;;;;;;;30.75;25.75;;;;;21.21;59.19;101830.41;5078473;27;47259;-57
2021/08/31 07:54:11;;;;;;;;;24.50;23.00;;;;;21.25;58.63;101831.19;5077102;28;45240;-56
2021/08/31 07:56:37;;;;;;;;;22.00;22.00;;;;;21.31;58.78;101828.19;5078463;27;45747;-57
2021/08/31 07:59:04;;;;;;;;;28.00;26.00;;;;;21.35;59.05;101830.69;5079998;27;45695;-56
2021/08/31 08:01:30;;;;;;;;;21.00;20.00;;;;;21.38;58.37;101826.97;5081683;27;47364;-57
2021/08/31 08:03:59;;;;;;;;;24.75;24.50;;;;;21.45;58.77;101836.50;5087517;27;45694;-55
2021/08/31 08:06:25;;;;;;;;;26.25;23.25;;;;;21.49;58.30;101835.41;5078728;27;45431;-57
2021/08/31 08:08:51;;;;;;;;;26.50;23.00;;;;;21.54;58.60;101838.75;5078402;27;45308;-56
2021/08/31 08:11:17;;;;;;;;;26.50;24.75;;;;;21.60;58.16;101840.28;5060439;28;47066;-57
2021/08/31 08:13:43;;;;;;;;;24.50;24.50;;;;;21.64;57.80;101852.69;5060284;28;45386;-56
2021/08/31 08:16:09;;;;;;;;;26.50;23.50;;;;;21.70;57.77;101852.34;5078040;27;45368;-57
2021/08/31 08:18:34;;;;;;;;;22.25;21.00;;;;;21.74;57.58;101848.56;5060046;28;45562;-57
2021/08/31 08:21:00;;;;;;;;;24.25;22.50;;;;;21.81;57.54;101854.53;5078297;28;45560;-56
2021/08/31 08:23:27;;;;;;;;;24.50;20.75;;;;;21.87;57.88;101851.53;5078384;27;45662;-56
2021/08/31 08:25:52;;;;;;;;;23.75;21.00;;;;;21.93;57.32;101853.91;5078539;27;45316;-57
2021/08/31 08:28:20;;;;;;;;;22.25;21.00;;;;;21.95;57.07;101855.56;5078338;28;45483;-57
2021/08/31 08:30:46;;;;;;;;;23.50;23.25;;;;;21.95;56.88;101857.38;5077682;27;47527;-57
2021/08/31 08:33:11;;;;;;;;;24.50;23.50;;;;;21.93;56.92;101856.59;5081019;27;45353;-58
2021/08/31 08:35:36;;;;;;;;;22.00;21.75;;;;;21.91;56.63;101862.09;5085982;27;45495;-56
2021/08/31 08:38:02;;;;;;;;;26.75;25.25;;;;;21.88;56.32;101854.16;5043837;28;45507;-57
2021/08/31 08:40:28;;;;;;;;;20.00;19.75;;;;;21.84;56.21;101863.34;5079450;27;47419;-58
2021/08/31 08:42:54;;;;;;;;;26.50;23.75;;;;;21.82;56.34;101861.66;5063126;28;45609;-56
2021/08/31 08:45:20;;;;;;;;;18.25;18.25;;;;;21.79;56.49;101859.13;5082150;27;45367;-57
2021/08/31 08:47:46;;;;;;;;;25.50;24.25;;;;;21.80;56.64;101861.75;5067389;27;45522;-56
2021/08/31 08:50:12;;;;;;;;;22.25;20.50;;;;;21.84;56.64;101859.75;5083449;27;46638;-58
2021/08/31 08:52:38;;;;;;;;;22.25;19.50;;;;;21.87;56.93;101863.22;5081824;27;46253;-57
2021/08/31 08:55:09;;;;;;;;;17.50;17.50;;;;;21.92;56.89;101874.66;5063142;27;45454;-56
2021/08/31 08:57:35;;;;;;;;;21.00;21.00;;;;;22.00;56.71;101864.31;5081694;27;45325;-58
2021/08/31 09:00:00;;;;;;;;;21.75;21.00;;;;;22.08;56.29;101861.25;5084142;27;47158;-57
2021/08/31 09:02:32;;;;;;;;;21.75;21.25;;;;;22.16;56.25;101874.38;5084838;27;45517;-56
2021/08/31 09:04:57;;;;;;;;;27.25;26.50;;;;;22.18;55.60;101867.94;5063405;28;45526;-56
2021/08/31 09:07:25;;;;;;;;;23.25;23.25;;;;;22.19;55.91;101872.38;5081660;27;45424;-57
2021/08/31 09:10:14;;;;;;;;;21.75;21.75;;;;;22.22;55.70;101864.09;5063098;28;48095;-59
2021/08/31 09:12:41;;;;;;;;;22.00;22.00;;;;;22.23;55.85;101865.88;5080854;27;45399;-57
2021/08/31 09:15:29;;;;;;;;;18.75;18.75;;;;;22.24;55.52;101867.63;5081520;27;45384;-58
2021/08/31 09:18:04;;;;;;;;;24.50;22.00;;;;;22.27;55.66;101867.47;5081360;27;45365;-56
2021/08/31 09:20:34;;;;;;;;;21.50;21.50;;;;;22.28;55.47;101873.75;5081221;27;47326;-57
2021/08/31 09:23:00;;;;;;;;;18.00;18.00;;;;;22.31;55.38;101874.44;5080652;27;45310;-56
2021/08/31 09:25:36;;;;;;;;;18.50;17.25;;;;;22.39;55.37;101873.19;5081268;27;45350;-56
2021/08/31 09:28:17;;;;;;;;;22.50;21.25;;;;;22.45;54.57;101872.84;5077036;27;45437;-57
2021/08/31 09:30:43;;;;;;;;;22.75;20.50;;;;;22.48;54.54;101861.84;5080794;27;48931;-57
2021/08/31 09:33:12;;;;;;;;;21.50;20.75;;;;;22.53;54.22;101867.91;5065616;28;45289;-57
2021/08/31 09:35:47;;;;;;;;;22.25;18.50;;;;;22.57;54.48;101866.78;5080797;27;45475;-58
2021/08/31 09:38:15;;;;;;;;;17.00;14.50;;;;;22.62;53.90;101875.53;5079193;27;45575;-57
2021/08/31 09:40:47;;;;;;;;;22.00;21.25;;;;;22.65;53.89;101869.97;5059350;28;48707;-57
2021/08/31 09:43:17;;;;;;;;;18.50;18.50;;;;;22.69;53.70;101873.38;5077787;27;45515;-57
2021/08/31 09:45:44;;;;;;;;;20.25;19.75;;;;;22.65;53.41;101866.38;5079494;27;45508;-57
2021/08/31 09:48:13;;;;;;;;;26.25;24.25;;;;;22.60;53.58;101859.38;5077258;27;45439;-58
2021/08/31 09:50:44;;;;;;;;;22.75;20.25;;;;;22.63;53.88;101874.59;5065002;28;45479;-56
2021/08/31 09:53:18;;;;;;;;;24.00;23.75;;;;;22.72;54.00;101873.19;5065147;27;45450;-57
2021/08/31 09:55:47;;;;;;;;;23.00;22.50;;;;;22.82;53.77;101871.75;5081092;27;45454;-58
2021/08/31 09:58:20;;;;;;;;;21.50;19.50;;;;;22.92;53.60;101873.03;5083597;27;45402;-58
2021/08/31 10:00:47;;;;;;;;;22.50;20.25;;;;;23.00;52.87;101873.50;5078741;27;46413;-58
2021/08/31 10:03:13;;;;;;;;;20.00;20.00;;;;;23.01;53.04;101868.94;5081965;27;46208;-56
2021/08/31 10:05:40;;;;;;;;;26.00;22.50;;;;;23.06;52.57;101883.09;5080778;27;45413;-56
2021/08/31 10:08:06;;;;;;;;;21.75;21.50;;;;;23.11;52.46;101881.88;5080725;27;45314;-56
2021/08/31 10:10:33;;;;;;;;;20.00;20.00;;;;;23.20;52.24;101867.81;5080117;27;45310;-55
2021/08/31 10:13:02;;;;;;;;;26.00;25.00;;;;;23.24;52.08;101882.06;5079402;27;45502;-55
2021/08/31 10:15:29;;;;;;;;;20.50;19.50;;;;;23.27;52.11;101873.78;5079580;27;45664;-56
2021/08/31 10:17:55;;;;;;;;;22.50;22.50;;;;;23.36;52.18;101877.78;5080250;27;45888;-56
2021/08/31 10:20:27;;;;;;;;;16.25;16.25;;;;;23.43;52.02;101880.06;5079613;27;45515;-56
2021/08/31 10:22:55;;;;;;;;;26.75;22.75;;;;;23.50;51.95;101869.72;5061845;28;45761;-55
2021/08/31 10:25:22;;;;;;;;;20.25;19.00;;;;;23.57;51.61;101873.84;5062176;27;45388;-56
2021/08/31 10:27:49;;;;;;;;;24.25;22.00;;;;;23.61;51.17;101872.72;5062102;27;45481;-56
2021/08/31 10:30:15;;;;;;;;;22.00;20.25;;;;;23.67;51.55;101877.81;5079690;27;47492;-55
2021/08/31 10:32:43;;;;;;;;;23.50;22.50;;;;;23.74;51.29;101871.06;5080851;27;45319;-56
2021/08/31 10:35:09;;;;;;;;;22.00;21.75;;;;;23.80;50.97;101877.09;5062500;27;45405;-56
2021/08/31 10:37:48;;;;;;;;;19.00;18.25;;;;;23.83;50.80;101883.22;5080430;27;45467;-55
2021/08/31 10:40:33;;;;;;;;;18.75;18.75;;;;;23.85;50.56;101872.28;5067384;28;47599;-56
2021/08/31 10:43:00;;;;;;;;;22.25;21.25;;;;;23.85;50.76;101878.56;5071030;27;45963;-56
2021/08/31 10:45:25;;;;;;;;;25.50;22.25;;;;;23.85;50.09;101885.81;5080121;27;45468;-56
2021/08/31 10:47:52;;;;;;;;;20.50;18.50;;;;;23.80;50.40;101883.41;5084871;27;45307;-56
2021/08/31 10:50:24;;;;;;;;;19.00;18.00;;;;;23.83;50.13;101882.34;5080479;27;46810;-56
2021/08/31 10:52:56;;;;;;;;;20.50;19.25;;;;;23.87;49.92;101879.34;5063969;28;46158;-57
2021/08/31 10:55:24;;;;;;;;;18.75;18.75;;;;;23.92;49.87;101884.50;5079605;27;45392;-55
2021/08/31 10:58:00;;;;;;;;;17.25;16.25;;;;;23.94;49.51;101879.88;5080470;27;45399;-57
2021/08/31 11:00:25;;;;;;;;;19.25;18.25;;;;;23.95;50.10;101887.03;5081156;27;48201;-55
2021/08/31 11:02:52;;;;;;;;;19.75;19.00;;;;;23.94;49.63;101880.75;5084824;27;45766;-56
2021/08/31 11:05:17;;;;;;;;;23.50;22.25;;;;;23.93;49.23;101880.84;5079552;27;45519;-56
2021/08/31 11:07:44;;;;;;;;;20.25;19.25;;;;;23.90;49.23;101875.59;5079170;27;45434;-59
2021/08/31 11:10:09;;;;;;;;;19.50;16.75;;;;;23.85;49.48;101883.13;5078871;27;47249;-57
2021/08/31 11:12:35;;;;;;;;;20.25;20.25;;;;;23.81;49.44;101881.56;5078916;27;45667;-56